Time;durP1;ratioP1;P1;durP2;ratioP2;P2;SDS_P1;SDS_P2;PMS_P1;PMS_P2;Temp;Humidity;BMP_temperature;BMP_pressure;BME280_temperature;BME280_humidity;BME280_pressure;Samples;Min_cycle;Max_cycle;Signal;HPM_P1;HPM_P2
2022/11/13 00:00:06;;;;;;;29.98;22.23;;;12.70;99.90;13.10;100333.00;;;;336126;28;87665;-95
2022/11/13 00:00:18;;;;;;;29.65;21.48;;;12.70;99.90;13.20;100340.00;;;;332488;29;92557;-95
2022/11/13 00:00:30;;;;;;;28.67;20.45;;;12.70;99.90;13.20;100341.00;;;;335063;29;84957;-95
2022/11/13 00:00:42;;;;;;;27.10;19.58;;;12.80;99.90;13.20;100336.00;;;;333649;29;91217;-95
2022/11/13 00:00:54;;;;;;;26.48;20.00;;;12.80;99.90;13.20;100332.00;;;;337539;28;86482;-95
2022/11/13 00:01:10;;;;;;;27.80;20.73;;;12.80;99.90;13.10;100341.00;;;;335158;28;90748;-94
2022/11/13 00:01:24;;;;;;;28.52;22.23;;;12.80;99.90;13.10;100338.00;;;;334894;28;85071;-95
2022/11/13 00:01:35;;;;;;;28.10;21.85;;;12.80;99.90;12.90;100325.00;;;;334769;29;91502;-94
2022/11/13 00:01:47;;;;;;;29.10;21.60;;;12.80;99.90;13.00;100323.00;;;;335278;29;86435;-95
2022/11/13 00:01:59;;;;;;;31.42;22.50;;;12.80;99.90;13.10;100336.00;;;;333477;29;90726;-95
2022/11/13 00:02:11;;;;;;;30.42;22.33;;;12.80;99.90;13.10;100331.00;;;;333784;29;85915;-95
2022/11/13 00:02:23;;;;;;;28.63;20.95;;;12.80;99.90;13.10;100324.00;;;;334798;29;90326;-95
2022/11/13 00:02:35;;;;;;;27.02;21.00;;;12.80;99.90;13.10;100323.00;;;;336555;28;84456;-94
2022/11/13 00:02:47;;;;;;;28.10;21.23;;;12.80;99.90;13.10;100321.00;;;;335976;28;92391;-95
2022/11/13 00:02:59;;;;;;;28.60;21.58;;;12.90;99.90;13.00;100335.00;;;;335104;29;86431;-94
2022/11/13 00:03:10;;;;;;;30.05;21.27;;;12.80;99.90;13.00;100332.00;;;;334823;29;91230;-95
2022/11/13 00:03:22;;;;;;;29.42;20.70;;;12.80;99.90;13.00;100324.00;;;;333785;29;86331;-94
2022/11/13 00:03:34;;;;;;;27.92;20.58;;;12.80;99.90;12.90;100331.00;;;;334393;28;90499;-94
2022/11/13 00:03:46;;;;;;;27.30;20.67;;;12.80;99.90;12.80;100335.00;;;;336351;28;85897;-95
2022/11/13 00:03:58;;;;;;;26.90;20.77;;;12.80;99.90;12.80;100334.00;;;;333813;29;88448;-95
2022/11/13 00:04:11;;;;;;;26.52;20.52;;;12.80;99.90;12.80;100331.00;;;;335185;29;88129;-95
2022/11/13 00:04:23;;;;;;;24.92;19.95;;;12.80;99.90;12.80;100333.00;;;;334832;29;92234;-95
2022/11/13 00:04:35;;;;;;;23.80;19.45;;;12.80;99.90;12.70;100333.00;;;;335094;29;84653;-94
2022/11/13 00:04:47;;;;;;;23.95;19.20;;;12.80;99.90;12.70;100334.00;;;;333597;29;91686;-95
2022/11/13 00:04:59;;;;;;;26.38;20.38;;;12.80;99.90;12.70;100330.00;;;;334997;29;86139;-94
2022/11/13 00:05:11;;;;;;;27.35;21.40;;;12.80;99.90;12.80;100332.00;;;;334743;29;89967;-94
2022/11/13 00:05:23;;;;;;;29.45;21.90;;;12.80;99.90;12.80;100326.00;;;;333582;29;86229;-96
2022/11/13 00:05:34;;;;;;;30.38;22.20;;;12.80;99.90;12.80;100320.00;;;;333616;29;92439;-95
2022/11/13 00:05:46;;;;;;;29.80;21.67;;;12.80;99.90;12.80;100332.00;;;;333919;29;86128;-95
2022/11/13 00:06:02;;;;;;;27.20;21.48;;;12.80;99.90;12.80;100325.00;;;;335079;29;91038;-95
2022/11/13 00:06:14;;;;;;;25.73;21.20;;;12.80;99.90;12.70;100321.00;;;;335202;29;86382;-95
2022/11/13 00:06:26;;;;;;;26.52;21.17;;;12.80;99.90;12.70;100334.00;;;;332490;29;91218;-95
2022/11/13 00:06:37;;;;;;;27.67;21.25;;;12.80;99.90;12.70;100322.00;;;;332657;29;86199;-95
2022/11/13 00:06:49;;;;;;;28.15;21.08;;;12.80;99.90;12.80;100325.00;;;;333647;29;91357;-95
2022/11/13 00:07:08;;;;;;;26.45;20.15;;;12.80;99.90;13.00;100331.00;;;;331712;29;86517;-95
2022/11/13 00:07:20;;;;;;;26.05;20.25;;;12.80;99.90;13.00;100315.00;;;;333805;29;91057;-95
2022/11/13 00:07:32;;;;;;;27.55;20.58;;;12.80;99.90;13.00;100330.00;;;;333869;29;87614;-96
2022/11/13 00:07:44;;;;;;;28.40;21.05;;;12.90;99.90;13.10;100333.00;;;;333545;29;92880;-95
2022/11/13 00:07:56;;;;;;;25.98;19.92;;;12.90;99.90;13.20;100325.00;;;;333727;29;85825;-95
2022/11/13 00:08:07;;;;;;;27.08;19.95;;;12.90;99.90;13.20;100323.00;;;;335172;29;91016;-94
2022/11/13 00:08:19;;;;;;;28.08;20.55;;;12.90;99.90;13.20;100320.00;;;;333522;29;87571;-94
2022/11/13 00:08:31;;;;;;;29.85;21.27;;;12.90;99.90;13.20;100322.00;;;;334963;29;91117;-94
2022/11/13 00:08:43;;;;;;;29.02;20.90;;;12.90;99.90;13.10;100324.00;;;;332456;29;86581;-95
2022/11/13 00:08:55;;;;;;;28.90;21.10;;;13.00;99.90;13.00;100321.00;;;;333943;29;92331;-95
2022/11/13 00:09:10;;;;;;;25.80;20.05;;;13.00;99.90;13.10;100330.00;;;;335836;28;86032;-95
2022/11/13 00:09:22;;;;;;;27.23;20.40;;;13.00;99.90;13.20;100339.00;;;;333799;29;91301;-94
2022/11/13 00:09:33;;;;;;;26.92;20.13;;;13.00;99.90;13.30;100336.00;;;;335483;28;85241;-93
2022/11/13 00:09:45;;;;;;;25.63;19.02;;;13.00;99.90;13.40;100330.00;;;;334930;29;92672;-94
2022/11/13 00:09:57;;;;;;;27.92;19.80;;;13.00;99.90;13.30;100330.00;;;;334992;28;85307;-94
2022/11/13 00:10:09;;;;;;;29.73;20.65;;;13.00;99.90;13.30;100334.00;;;;333654;29;91089;-96
2022/11/13 00:10:21;;;;;;;28.35;20.15;;;13.00;99.90;13.20;100322.00;;;;333738;29;86478;-95
2022/11/13 00:10:33;;;;;;;27.67;19.75;;;13.00;99.90;13.20;100325.00;;;;333534;29;90991;-95
2022/11/13 00:10:44;;;;;;;25.80;19.70;;;13.10;99.90;13.20;100331.00;;;;333718;29;86194;-94
2022/11/13 00:11:04;;;;;;;27.48;20.13;;;13.00;99.90;13.10;100320.00;;;;331022;29;91538;-94
2022/11/13 00:11:18;;;;;;;29.58;20.92;;;13.10;99.90;13.00;100335.00;;;;332580;29;87645;-95
2022/11/13 00:11:30;;;;;;;28.20;20.58;;;13.10;99.90;13.00;100316.00;;;;332274;29;91154;-95
2022/11/13 00:11:42;;;;;;;27.05;20.17;;;13.10;99.90;12.90;100330.00;;;;335204;29;85887;-95
2022/11/13 00:11:53;;;;;;;28.25;20.05;;;13.10;99.90;12.90;100324.00;;;;333887;29;91754;-94
2022/11/13 00:12:05;;;;;;;27.70;20.67;;;13.00;99.90;12.90;100333.00;;;;332973;29;87037;-95
2022/11/13 00:12:17;;;;;;;29.25;21.58;;;13.00;99.90;13.10;100333.00;;;;333493;29;90784;-95
2022/11/13 00:12:29;;;;;;;27.55;20.83;;;13.00;99.90;13.30;100331.00;;;;333891;29;87494;-93
2022/11/13 00:12:41;;;;;;;26.73;20.20;;;13.00;99.90;13.30;100323.00;;;;334859;29;91688;-94
2022/11/13 00:12:53;;;;;;;26.75;20.42;;;13.10;99.90;13.30;100335.00;;;;333744;29;85206;-94
2022/11/13 00:13:05;;;;;;;29.30;21.45;;;13.10;99.90;13.10;100326.00;;;;336206;28;90906;-94
2022/11/13 00:13:17;;;;;;;30.10;21.60;;;13.10;99.90;12.90;100324.00;;;;334145;29;86095;-93
2022/11/13 00:13:29;;;;;;;29.70;21.27;;;13.10;99.90;12.80;100331.00;;;;333817;29;92092;-94
2022/11/13 00:13:44;;;;;;;30.95;22.33;;;13.10;99.90;12.70;100330.00;;;;336402;28;86375;-94
2022/11/13 00:13:56;;;;;;;32.38;22.27;;;13.10;99.90;12.70;100331.00;;;;333675;29;92085;-94
2022/11/13 00:14:08;;;;;;;30.75;21.58;;;13.10;99.90;12.60;100330.00;;;;335227;29;86520;-95
2022/11/13 00:14:20;;;;;;;30.25;22.38;;;13.10;99.90;12.60;100331.00;;;;332899;29;91154;-94
2022/11/13 00:14:31;;;;;;;31.38;22.80;;;13.00;99.90;12.60;100323.00;;;;333653;29;86784;-93
2022/11/13 00:14:43;;;;;;;32.22;23.00;;;13.00;99.90;12.60;100331.00;;;;332719;29;90732;-95
2022/11/13 00:14:55;;;;;;;30.73;23.40;;;13.00;99.90;12.50;100332.00;;;;332499;29;86476;-94
2022/11/13 00:15:07;;;;;;;31.30;23.58;;;13.00;99.90;12.70;100338.00;;;;333730;29;92122;-93
2022/11/13 00:15:19;;;;;;;28.95;22.35;;;13.00;99.90;12.90;100324.00;;;;334988;29;86576;-94
2022/11/13 00:15:31;;;;;;;28.58;21.73;;;13.00;99.90;12.90;100333.00;;;;336370;28;90820;-94
2022/11/13 00:15:43;;;;;;;29.85;22.30;;;13.00;99.90;13.00;100335.00;;;;333904;29;87946;-95
2022/11/13 00:16:01;;;;;;;30.92;22.90;;;13.00;99.90;13.20;100332.00;;;;336313;28;92421;-93
2022/11/13 00:16:16;;;;;;;29.58;21.83;;;13.00;99.90;13.00;100332.00;;;;336614;28;86515;-95
2022/11/13 00:16:28;;;;;;;28.33;21.13;;;13.00;99.90;13.10;100335.00;;;;336379;28;91607;-94
2022/11/13 00:16:40;;;;;;;28.48;21.38;;;13.00;99.90;13.00;100332.00;;;;336555;28;86023;-94
2022/11/13 00:16:51;;;;;;;25.90;20.52;;;13.00;99.90;13.10;100335.00;;;;333568;29;91339;-93
2022/11/13 00:17:03;;;;;;;27.06;20.80;;;13.00;99.90;13.20;100331.00;;;;334012;29;86480;-94
2022/11/13 00:17:15;;;;;;;28.05;21.42;;;13.00;99.90;13.20;100334.00;;;;335117;29;90118;-95
2022/11/13 00:17:27;;;;;;;29.10;22.08;;;13.00;99.90;13.20;100334.00;;;;333990;29;86512;-94
2022/11/13 00:17:39;;;;;;;27.52;20.95;;;13.10;99.90;13.20;100324.00;;;;333648;29;91865;-94
2022/11/13 00:17:51;;;;;;;25.65;20.00;;;13.10;99.90;13.20;100331.00;;;;334778;29;87165;-94
2022/11/13 00:18:03;;;;;;;25.30;20.27;;;13.10;99.90;13.00;100323.00;;;;333277;29;92780;-94
2022/11/13 00:18:15;;;;;;;25.05;20.20;;;13.10;99.90;13.00;100320.00;;;;335295;29;86193;-93
2022/11/13 00:18:28;;;;;;;26.35;20.77;;;13.00;99.90;13.00;100322.00;;;;333719;29;90672;-93
2022/11/13 00:18:41;;;;;;;27.95;20.98;;;13.10;99.90;13.00;100323.00;;;;333821;29;86676;-94
2022/11/13 00:18:53;;;;;;;28.23;21.17;;;13.00;99.90;13.00;100330.00;;;;334910;29;90160;-94
2022/11/13 00:19:05;;;;;;;27.17;20.17;;;13.00;99.90;12.80;100339.00;;;;333681;29;86307;-93
2022/11/13 00:19:16;;;;;;;26.20;19.83;;;13.00;99.90;12.80;100334.00;;;;332919;29;92038;-95
2022/11/13 00:19:28;;;;;;;28.15;21.13;;;13.00;99.90;12.90;100326.00;;;;332964;29;86332;-95
2022/11/13 00:19:40;;;;;;;29.45;22.38;;;13.00;99.90;12.80;100330.00;;;;334563;29;90363;-94
2022/11/13 00:19:52;;;;;;;30.05;22.38;;;13.00;99.90;12.70;100324.00;;;;333918;29;86882;-93
2022/11/13 00:20:04;;;;;;;29.52;22.10;;;13.00;99.90;12.70;100338.00;;;;332160;29;91191;-94
2022/11/13 00:20:17;;;;;;;29.55;22.38;;;13.00;99.90;12.80;100332.00;;;;333832;29;87143;-94
2022/11/13 00:20:29;;;;;;;29.00;22.48;;;13.00;99.90;12.60;100335.00;;;;333554;29;88559;-94
2022/11/13 00:20:41;;;;;;;28.15;21.52;;;13.00;99.90;12.60;100319.00;;;;335284;29;86100;-94
2022/11/13 00:20:52;;;;;;;26.60;20.75;;;13.00;99.90;12.60;100317.00;;;;332382;29;90530;-94
2022/11/13 00:21:10;;;;;;;26.48;20.17;;;13.00;99.90;12.90;100325.00;;;;332668;29;86341;-94
2022/11/13 00:21:24;;;;;;;28.98;20.63;;;13.00;99.90;12.90;100318.00;;;;333566;29;92178;-94
2022/11/13 00:21:35;;;;;;;28.52;20.70;;;13.00;99.90;12.80;100332.00;;;;332849;29;87116;-93
2022/11/13 00:21:47;;;;;;;26.40;20.35;;;13.00;99.90;12.90;100330.00;;;;334001;29;92306;-93
2022/11/13 00:21:59;;;;;;;25.13;19.95;;;13.00;99.90;13.10;100322.00;;;;333975;29;86490;-93
2022/11/13 00:22:11;;;;;;;26.40;20.20;;;13.00;99.90;12.80;100322.00;;;;332291;29;91860;-94
2022/11/13 00:22:23;;;;;;;27.27;20.75;;;12.90;99.90;12.70;100325.00;;;;333651;29;86988;-93
2022/11/13 00:22:35;;;;;;;26.83;21.42;;;13.00;99.90;13.00;100311.00;;;;333535;29;88559;-93
2022/11/13 00:22:47;;;;;;;27.83;21.83;;;13.00;99.90;13.00;100313.00;;;;337701;28;87691;-93
2022/11/13 00:22:59;;;;;;;28.33;21.55;;;13.00;99.90;12.80;100318.00;;;;336139;28;90818;-93
2022/11/13 00:23:11;;;;;;;28.67;21.35;;;12.90;99.90;12.80;100314.00;;;;335259;29;87133;-94
2022/11/13 00:23:23;;;;;;;30.95;20.95;;;12.90;99.90;12.80;100318.00;;;;335757;28;90648;-93
2022/11/13 00:23:35;;;;;;;30.23;20.42;;;12.90;99.90;12.90;100311.00;;;;335052;29;86843;-93
2022/11/13 00:23:47;;;;;;;27.27;20.20;;;12.90;99.90;12.80;100308.00;;;;333522;29;91968;-94
2022/11/13 00:23:59;;;;;;;28.10;21.05;;;12.90;99.90;12.90;100308.00;;;;336478;28;87061;-93
2022/11/13 00:24:11;;;;;;;26.40;20.25;;;12.90;99.90;13.00;100309.00;;;;334843;29;91229;-94
2022/11/13 00:24:22;;;;;;;25.85;19.77;;;12.90;99.90;13.00;100310.00;;;;334867;29;87679;-93
2022/11/13 00:24:34;;;;;;;25.75;19.33;;;12.80;99.90;13.10;100321.00;;;;332465;29;92283;-93
2022/11/13 00:24:46;;;;;;;26.08;19.35;;;12.90;99.90;12.90;100315.00;;;;332308;29;86963;-94
2022/11/13 00:24:58;;;;;;;26.80;19.60;;;12.90;99.90;12.90;100317.00;;;;333495;29;92791;-94
2022/11/13 00:25:10;;;;;;;26.08;19.60;;;12.90;99.90;12.70;100315.00;;;;333658;29;86651;-95
2022/11/13 00:25:22;;;;;;;24.27;18.55;;;12.90;99.90;12.70;100310.00;;;;332480;29;90088;-94
2022/11/13 00:25:34;;;;;;;24.83;18.70;;;12.90;99.90;12.80;100303.00;;;;331510;29;86251;-94
2022/11/13 00:25:46;;;;;;;25.13;19.48;;;12.80;99.90;12.60;100316.00;;;;331089;29;90599;-93
2022/11/13 00:26:06;;;;;;;26.40;20.05;;;12.80;99.90;12.70;100313.00;;;;332741;29;87800;-94
2022/11/13 00:26:23;;;;;;;27.90;20.48;;;12.80;99.90;12.80;100304.00;;;;332983;29;93023;-94
2022/11/13 00:26:35;;;;;;;27.42;20.77;;;12.80;99.90;12.70;100309.00;;;;333869;29;86752;-95
2022/11/13 00:26:47;;;;;;;28.67;21.70;;;12.80;99.90;12.80;100313.00;;;;334775;29;90852;-93
2022/11/13 00:26:59;;;;;;;28.00;21.58;;;12.80;99.90;12.60;100313.00;;;;334783;28;87210;-94
2022/11/13 00:27:11;;;;;;;27.13;20.85;;;12.80;99.90;12.50;100310.00;;;;334660;29;92232;-95
2022/11/13 00:27:23;;;;;;;27.42;20.80;;;12.80;99.90;12.60;100308.00;;;;333411;29;86688;-94
2022/11/13 00:27:35;;;;;;;27.92;20.95;;;12.70;99.90;12.50;100314.00;;;;332038;29;91705;-93
2022/11/13 00:27:47;;;;;;;27.75;21.17;;;12.80;99.90;12.60;100312.00;;;;331705;29;87466;-92
2022/11/13 00:27:59;;;;;;;29.25;20.77;;;12.80;99.90;12.70;100311.00;;;;330891;29;92076;-94
2022/11/13 00:28:10;;;;;;;28.65;20.30;;;12.80;99.90;12.60;100315.00;;;;331957;29;85328;-93
2022/11/13 00:28:22;;;;;;;26.55;20.90;;;12.80;99.90;12.50;100314.00;;;;333166;29;94356;-93
2022/11/13 00:28:34;;;;;;;27.05;21.38;;;12.70;99.90;12.40;100308.00;;;;333652;29;87366;-95
2022/11/13 00:28:50;;;;;;;26.92;20.83;;;12.80;99.90;12.40;100307.00;;;;333106;29;91093;-94
2022/11/13 00:29:02;;;;;;;27.35;20.38;;;12.70;99.90;12.40;100318.00;;;;332286;29;87646;-95
2022/11/13 00:29:14;;;;;;;28.85;20.38;;;12.70;99.90;12.50;100318.00;;;;334884;29;92131;-94
2022/11/13 00:29:26;;;;;;;28.45;20.95;;;12.70;99.90;12.50;100307.00;;;;335055;29;86275;-94
2022/11/13 00:29:38;;;;;;;28.73;21.05;;;12.70;99.90;12.50;100318.00;;;;333232;29;90478;-93
2022/11/13 00:29:50;;;;;;;29.98;21.98;;;12.70;99.90;12.40;100317.00;;;;336696;28;87740;-94
2022/11/13 00:30:04;;;;;;;29.73;21.92;;;12.70;99.90;12.40;100323.00;;;;334693;29;91797;-93
2022/11/13 00:30:16;;;;;;;30.67;21.73;;;12.70;99.90;12.40;100316.00;;;;333641;29;87481;-93
2022/11/13 00:30:30;;;;;;;31.27;21.33;;;12.60;99.90;12.30;100318.00;;;;334741;29;92009;-92
2022/11/13 00:30:42;;;;;;;30.15;20.98;;;12.60;99.90;12.30;100315.00;;;;334730;29;87462;-93
2022/11/13 00:31:00;;;;;;;28.40;20.60;;;12.60;99.90;12.40;100313.00;;;;334066;29;91826;-94
2022/11/13 00:31:14;;;;;;;29.77;21.27;;;12.60;99.90;12.40;100317.00;;;;333746;29;87621;-93
2022/11/13 00:31:25;;;;;;;27.25;20.23;;;12.60;99.90;12.50;100318.00;;;;333027;29;90959;-93
2022/11/13 00:31:37;;;;;;;27.88;20.88;;;12.60;99.90;12.40;100318.00;;;;331982;29;86264;-94
2022/11/13 00:31:49;;;;;;;28.02;20.38;;;12.60;99.90;12.50;100320.00;;;;333135;29;91781;-93
2022/11/13 00:32:01;;;;;;;26.38;19.33;;;12.60;99.90;12.70;100305.00;;;;333637;29;86943;-94
2022/11/13 00:32:13;;;;;;;26.40;19.17;;;12.60;99.90;12.70;100332.00;;;;332258;29;91650;-93
2022/11/13 00:32:25;;;;;;;26.58;19.75;;;12.60;99.90;12.70;100318.00;;;;333560;29;84758;-93
2022/11/13 00:32:38;;;;;;;26.67;19.83;;;12.60;99.90;12.80;100307.00;;;;332141;29;92436;-93
2022/11/13 00:32:50;;;;;;;27.05;19.27;;;12.70;99.90;12.90;100305.00;;;;334885;29;85285;-93
2022/11/13 00:33:02;;;;;;;28.00;20.17;;;12.70;99.90;12.70;100310.00;;;;335690;28;90956;-93
2022/11/13 00:33:14;;;;;;;27.52;20.70;;;12.70;99.90;12.60;100309.00;;;;334411;29;85966;-94
2022/11/13 00:33:46;;;;;;;28.20;20.90;;;12.70;99.90;12.40;100315.00;;;;329612;29;90568;-93
2022/11/13 00:34:17;;;;;;;25.08;19.45;;;12.70;99.90;12.90;100313.00;;;;334536;29;86994;-94
2022/11/13 00:34:49;;;;;;;26.52;20.40;;;12.70;99.90;13.00;100311.00;;;;333723;29;91498;-93
2022/11/13 00:35:01;;;;;;;26.52;19.92;;;12.80;99.90;13.00;100308.00;;;;333493;29;87762;-94
2022/11/13 00:35:13;;;;;;;26.80;20.45;;;12.70;99.90;13.00;100309.00;;;;333465;29;90517;-93
2022/11/13 00:35:25;;;;;;;26.77;20.17;;;12.80;99.90;13.00;100305.00;;;;332406;29;87711;-94
2022/11/13 00:35:36;;;;;;;26.65;20.00;;;12.80;99.90;12.90;100309.00;;;;334624;28;93248;-93
2022/11/13 00:35:48;;;;;;;26.42;19.58;;;12.80;99.90;12.80;100312.00;;;;333707;29;87589;-94
2022/11/13 00:36:04;;;;;;;25.63;19.90;;;12.80;99.90;12.60;100305.00;;;;337371;28;92131;-94
2022/11/13 00:36:24;;;;;;;27.60;21.35;;;12.80;99.90;12.60;100311.00;;;;334413;29;85808;-94
2022/11/13 00:36:37;;;;;;;27.63;20.77;;;12.70;99.90;12.70;100315.00;;;;334385;29;92320;-94
2022/11/13 00:36:49;;;;;;;28.13;20.45;;;12.70;99.90;12.70;100308.00;;;;334526;29;86449;-93
2022/11/13 00:37:01;;;;;;;29.48;20.58;;;12.70;99.90;12.70;100301.00;;;;332046;29;91674;-94
2022/11/13 00:37:12;;;;;;;27.73;20.30;;;12.70;99.90;12.90;100301.00;;;;332232;29;87105;-95
2022/11/13 00:37:24;;;;;;;27.67;20.17;;;12.70;99.90;13.00;100298.00;;;;330840;29;91961;-93
2022/11/13 00:37:36;;;;;;;26.58;19.65;;;12.70;99.90;12.90;100302.00;;;;333430;29;85315;-94
2022/11/13 00:37:48;;;;;;;28.67;21.35;;;12.70;99.90;12.80;100302.00;;;;333389;29;92979;-93
2022/11/13 00:38:00;;;;;;;29.55;21.75;;;12.70;99.90;12.60;100301.00;;;;335923;28;86681;-94
2022/11/13 00:38:12;;;;;;;29.98;21.73;;;12.70;99.90;12.60;100296.00;;;;336986;28;91914;-94
2022/11/13 00:38:23;;;;;;;28.95;20.75;;;12.70;99.90;12.60;100301.00;;;;333414;29;87535;-93
2022/11/13 00:38:35;;;;;;;28.08;21.23;;;12.70;99.90;12.60;100295.00;;;;333684;29;90328;-94
2022/11/13 00:38:47;;;;;;;27.35;20.90;;;12.70;99.90;12.60;100293.00;;;;336484;28;84275;-93
2022/11/13 00:38:59;;;;;;;26.88;21.00;;;12.70;99.90;12.50;100291.00;;;;334649;29;92166;-94
2022/11/13 00:39:11;;;;;;;26.67;20.92;;;12.70;99.90;12.60;100308.00;;;;333646;29;87547;-94
2022/11/13 00:39:23;;;;;;;28.42;22.33;;;12.70;99.90;12.60;100294.00;;;;335490;28;91061;-93
2022/11/13 00:39:35;;;;;;;29.75;23.10;;;12.70;99.90;12.60;100294.00;;;;334952;29;86632;-94
2022/11/13 00:39:46;;;;;;;29.40;22.45;;;12.70;99.90;12.40;100299.00;;;;335127;28;92941;-93
2022/11/13 00:39:58;;;;;;;30.88;22.70;;;12.70;99.90;12.40;100306.00;;;;332314;29;86241;-95
2022/11/13 00:40:10;;;;;;;30.23;22.23;;;12.70;99.90;12.70;100298.00;;;;337471;28;89234;-93
2022/11/13 00:40:22;;;;;;;30.98;22.05;;;12.70;99.90;12.80;100297.00;;;;333587;29;87442;-95
2022/11/13 00:40:34;;;;;;;27.50;20.38;;;12.70;99.90;12.70;100294.00;;;;331934;29;90989;-94
2022/11/13 00:40:46;;;;;;;25.50;19.55;;;12.70;99.90;12.70;100304.00;;;;335469;28;85976;-94
2022/11/13 00:40:58;;;;;;;25.55;18.92;;;12.70;99.90;12.70;100302.00;;;;336814;28;90585;-94
2022/11/13 00:41:10;;;;;;;26.05;19.27;;;12.70;99.90;12.50;100293.00;;;;335018;28;86567;-96
2022/11/13 00:41:22;;;;;;;28.88;20.98;;;12.70;99.90;12.30;100300.00;;;;334021;29;92085;-94
2022/11/13 00:41:34;;;;;;;30.92;23.23;;;12.70;99.90;12.60;100301.00;;;;333791;29;86155;-95
2022/11/13 00:41:46;;;;;;;29.98;23.13;;;12.70;99.90;12.50;100294.00;;;;334210;29;91814;-94
2022/11/13 00:41:57;;;;;;;28.58;22.13;;;12.70;99.90;12.40;100299.00;;;;335200;28;86428;-95
2022/11/13 00:42:09;;;;;;;30.15;22.83;;;12.70;99.90;12.30;100297.00;;;;334717;29;91190;-94
2022/11/13 00:42:21;;;;;;;29.27;22.58;;;12.70;99.90;12.40;100292.00;;;;335151;28;87470;-94
2022/11/13 00:42:33;;;;;;;27.33;20.90;;;12.70;99.90;12.60;100299.00;;;;334130;29;90732;-95
2022/11/13 00:42:45;;;;;;;27.00;19.67;;;12.70;99.90;12.60;100307.00;;;;335801;28;87812;-94
2022/11/13 00:42:56;;;;;;;26.60;19.60;;;12.70;99.90;12.80;100297.00;;;;332993;29;91938;-94
2022/11/13 00:43:08;;;;;;;28.00;20.20;;;12.70;99.90;12.80;100295.00;;;;336241;28;86958;-93
2022/11/13 00:43:20;;;;;;;28.60;21.33;;;12.70;99.90;12.80;100296.00;;;;333277;29;90993;-94
2022/11/13 00:43:32;;;;;;;29.20;21.85;;;12.70;99.90;12.70;100293.00;;;;331690;29;87415;-93
2022/11/13 00:43:44;;;;;;;28.48;22.00;;;12.70;99.90;12.80;100294.00;;;;334609;29;92892;-94
2022/11/13 00:43:56;;;;;;;27.27;21.40;;;12.70;99.90;12.70;100294.00;;;;331069;29;83915;-93
2022/11/13 00:44:07;;;;;;;;;;;12.70;99.90;12.60;100293.00;;;;333676;29;90816;-95
2022/11/13 00:44:19;;;;;;;;;;;12.70;99.90;12.70;100291.00;;;;333852;29;86132;-94
2022/11/13 00:44:31;;;;;;;;;;;12.70;99.90;12.70;100301.00;;;;333599;29;91890;-93
2022/11/13 00:44:43;;;;;;;;;;;12.70;99.90;12.70;100300.00;;;;334130;29;82548;-94
2022/11/13 00:44:54;;;;;;;;;;;12.70;99.90;12.60;100299.00;;;;335875;28;89466;-94
2022/11/13 00:45:07;;;;;;;;;;;12.70;99.90;12.60;100294.00;;;;335383;29;82633;-95
2022/11/13 00:45:19;;;;;;;;;;;12.70;99.90;12.60;100290.00;;;;331219;29;90966;-94
2022/11/13 00:45:31;;;;;;;;;;;12.70;99.90;12.70;100300.00;;;;332667;29;82568;-94
2022/11/13 00:45:43;;;;;;;;;;;12.70;99.90;12.70;100290.00;;;;333584;29;92117;-93
2022/11/13 00:45:55;;;;;;;;;;;12.70;99.90;12.70;100296.00;;;;335405;29;82612;-94
2022/11/13 00:46:06;;;;;;;;;;;12.70;99.90;12.60;100286.00;;;;336296;28;90676;-94
2022/11/13 00:46:18;;;;;;;;;;;12.70;99.90;12.80;100298.00;;;;334095;29;82514;-93
2022/11/13 00:46:30;;;;;;;;;;;12.70;99.90;12.90;100294.00;;;;336192;28;91894;-94
2022/11/13 00:46:42;;;;;;;;;;;12.70;99.90;12.80;100287.00;;;;335360;29;82468;-94
2022/11/13 00:46:53;;;;;;;;;;;12.70;99.90;12.70;100291.00;;;;336396;28;91691;-94
2022/11/13 00:47:05;;;;;;;;;;;12.70;99.90;12.80;100289.00;;;;339270;28;83444;-94
2022/11/13 00:47:17;;;;;;;;;;;12.70;99.90;12.80;100292.00;;;;337641;28;91353;-94
2022/11/13 00:47:29;;;;;;;;;;;12.70;99.90;12.80;100290.00;;;;335134;29;83363;-94
2022/11/13 00:47:40;;;;;;;;;;;12.70;99.90;12.80;100289.00;;;;332324;29;92777;-93
2022/11/13 00:47:52;;;;;;;;;;;12.70;99.90;12.80;100293.00;;;;336617;28;83421;-95
2022/11/13 00:48:04;;;;;;;;;;;12.70;99.90;12.80;100295.00;;;;336291;28;90732;-94
2022/11/13 00:48:16;;;;;;;;;;;12.70;99.90;12.80;100288.00;;;;335483;29;83156;-94
2022/11/13 00:48:28;;;;;;;;;;;12.70;99.90;12.70;100286.00;;;;333781;29;90185;-94
2022/11/13 00:48:40;;;;;;;;;;;12.70;99.90;12.60;100288.00;;;;334276;29;83290;-94
2022/11/13 00:48:52;;;;;;;;;;;12.70;99.90;12.70;100284.00;;;;335083;29;90235;-94
2022/11/13 00:49:03;;;;;;;;;;;12.70;99.90;12.60;100279.00;;;;333200;29;82653;-94
2022/11/13 00:49:16;;;;;;;;;;;12.70;99.90;12.60;100281.00;;;;334052;29;90930;-94
2022/11/13 00:49:28;;;;;;;;;;;12.70;99.90;12.60;100283.00;;;;336748;28;83590;-94
2022/11/13 00:49:40;;;;;;;;;;;12.70;99.90;12.60;100288.00;;;;333628;29;91555;-93
2022/11/13 00:49:51;;;;;;;;;;;12.60;99.90;12.60;100285.00;;;;335476;29;82512;-94
2022/11/13 00:50:03;;;;;;;;;;;12.60;99.90;12.60;100293.00;;;;334986;29;91580;-94
2022/11/13 00:50:15;;;;;;;;;;;12.70;99.90;12.50;100289.00;;;;336673;28;82602;-94
2022/11/13 00:50:27;;;;;;;;;;;12.60;99.90;12.50;100284.00;;;;334980;29;89509;-95
2022/11/13 00:50:39;;;;;;;;;;;12.60;99.90;12.60;100282.00;;;;335364;29;83474;-94
2022/11/13 00:50:51;;;;;;;;;;;12.60;99.90;12.70;100287.00;;;;336404;28;90370;-95
2022/11/13 00:51:03;;;;;;;;;;;12.60;99.90;12.60;100281.00;;;;335473;29;82506;-95
2022/11/13 00:51:14;;;;;;;;;;;12.60;99.90;12.60;100281.00;;;;336249;28;91789;-94
2022/11/13 00:51:26;;;;;;;;;;;12.60;99.90;12.60;100283.00;;;;336637;28;83349;-94
2022/11/13 00:51:38;;;;;;;;;;;12.60;99.90;12.70;100289.00;;;;333312;29;91153;-95
2022/11/13 00:51:50;;;;;;;;;;;12.60;99.90;12.70;100286.00;;;;336754;28;82569;-95
2022/11/13 00:52:02;;;;;;;;;;;12.60;99.90;12.70;100280.00;;;;333679;29;90890;-94
2022/11/13 00:52:14;;;;;;;;;;;12.60;99.90;12.70;100288.00;;;;334110;29;83366;-94
2022/11/13 00:52:25;;;;;;;;;;;12.60;99.90;12.60;100291.00;;;;333664;29;92092;-94
2022/11/13 00:52:37;;;;;;;;;;;12.50;99.90;12.60;100290.00;;;;335418;29;82650;-95
2022/11/13 00:52:49;;;;;;;;;;;12.60;99.90;12.60;100287.00;;;;335033;29;91554;-95
2022/11/13 00:53:01;;;;;;;;;;;12.60;99.90;12.60;100295.00;;;;336700;28;82508;-94
2022/11/13 00:53:12;;;;;;;;;;;12.50;99.90;12.80;100286.00;;;;335294;28;89457;-94
2022/11/13 00:53:28;;;;;;;;;;;12.50;99.90;12.80;100287.00;;;;334240;29;82561;-94
2022/11/13 00:53:40;;;;;;;;;;;12.50;99.90;12.80;100290.00;;;;333413;29;90527;-95
2022/11/13 00:53:52;;;;;;;;;;;12.50;99.90;12.90;100288.00;;;;333889;29;83426;-95
2022/11/13 00:54:04;;;;;;;;;;;12.50;99.90;13.00;100291.00;;;;333867;29;90746;-94
2022/11/13 00:54:16;;;;;;;;;;;12.60;99.90;13.00;100288.00;;;;336675;28;82594;-94
2022/11/13 00:54:28;;;;;;;;;;;12.60;99.90;12.90;100287.00;;;;336003;28;91750;-95
2022/11/13 00:54:40;;;;;;;;;;;12.60;99.90;12.90;100291.00;;;;334432;29;82615;-95
2022/11/13 00:54:51;;;;;;;;;;;12.60;99.90;12.80;100294.00;;;;334363;29;90183;-95
2022/11/13 00:55:03;;;;;;;;;;;12.60;99.90;12.80;100291.00;;;;335362;28;83505;-95
2022/11/13 00:55:16;;;;;;;;;;;12.60;99.90;12.70;100290.00;;;;336402;28;87961;-95
2022/11/13 00:55:28;;;;;;;;;;;12.60;99.90;12.70;100293.00;;;;337860;28;83462;-94